Time;durP1;ratioP1;P1;durP2;ratioP2;P2;SDS_P1;SDS_P2;PMS_P1;PMS_P2;Temp;Humidity;BMP_temperature;BMP_pressure;BME280_temperature;BME280_humidity;BME280_pressure;Samples;Min_cycle;Max_cycle;Signal;HPM_P1;HPM_P2
2022/10/17 00:00:12;;;;;;;42.38;39.53;;;17.90;98.90;;;;;;4955954;28;20054;-83
2022/10/17 00:02:38;;;;;;;43.90;41.15;;;17.80;99.30;;;;;;4971699;28;20054;-82
2022/10/17 00:05:05;;;;;;;40.20;37.30;;;17.60;99.70;;;;;;4972316;28;20396;-82
2022/10/17 00:07:31;;;;;;;39.33;36.28;;;17.50;99.90;;;;;;4972560;28;20034;-82
2022/10/17 00:09:57;;;;;;;41.47;38.47;;;17.50;99.90;;;;;;4955584;28;20391;-82
2022/10/17 00:12:23;;;;;;;38.05;35.25;;;17.60;99.80;;;;;;4955335;28;20086;-82
2022/10/17 00:14:49;;;;;;;37.08;33.70;;;17.40;99.90;;;;;;4938959;28;20373;-82
2022/10/17 00:17:15;;;;;;;34.10;31.30;;;17.30;99.90;;;;;;4970790;28;20046;-82
2022/10/17 00:19:41;;;;;;;33.08;29.98;;;17.40;99.90;;;;;;4972180;28;20034;-82
2022/10/17 00:22:07;;;;;;;30.35;28.05;;;17.50;99.90;;;;;;4971984;28;20471;-82
2022/10/17 00:24:33;;;;;;;29.35;26.83;;;17.70;99.60;;;;;;4955737;28;20042;-82
2022/10/17 00:26:59;;;;;;;29.13;26.80;;;17.70;99.30;;;;;;4971865;28;20472;-82
2022/10/17 00:29:26;;;;;;;33.00;30.30;;;17.70;99.30;;;;;;4973111;28;20031;-82
2022/10/17 00:31:55;;;;;;;33.35;30.75;;;17.70;99.60;;;;;;4970711;28;20400;-82
2022/10/17 00:34:22;;;;;;;30.95;28.70;;;17.70;99.30;;;;;;4972110;28;20046;-82
2022/10/17 00:36:48;;;;;;;34.08;31.40;;;17.80;98.90;;;;;;4955719;28;20034;-82
2022/10/17 00:39:15;;;;;;;32.92;30.67;;;17.80;98.80;;;;;;4970650;28;20042;-82
2022/10/17 00:41:41;;;;;;;32.78;30.52;;;17.80;99.00;;;;;;4971812;28;20034;-82
2022/10/17 00:44:29;;;;;;;35.85;32.72;;;17.80;98.90;;;;;;4955687;28;20054;-83
2022/10/17 00:47:03;;;;;;;33.15;30.70;;;17.70;99.40;;;;;;4967593;28;20027;-82
2022/10/17 00:49:31;;;;;;;32.40;29.63;;;17.80;99.20;;;;;;4956998;28;20038;-82
2022/10/17 00:52:02;;;;;;;30.58;28.58;;;17.80;99.20;;;;;;4951461;28;20376;-83
2022/10/17 00:54:31;;;;;;;31.13;28.48;;;17.60;99.90;;;;;;4955360;28;20357;-82
2022/10/17 00:56:57;;;;;;;30.77;28.35;;;17.50;99.90;;;;;;4971841;28;20038;-82
2022/10/17 00:59:24;;;;;;;29.70;26.88;;;17.40;99.90;;;;;;4971236;28;20054;-82
2022/10/17 01:02:12;;;;;;;28.55;26.17;;;17.60;99.90;;;;;;4954599;28;20054;-82
2022/10/17 01:04:39;;;;;;;28.27;26.08;;;17.80;99.60;;;;;;4955801;28;20514;-82
2022/10/17 01:07:05;;;;;;;30.63;28.23;;;17.80;99.50;;;;;;4969863;28;20043;-82
2022/10/17 01:09:31;;;;;;;29.25;26.75;;;17.80;99.50;;;;;;4971382;28;20035;-82
2022/10/17 01:12:11;;;;;;;30.83;28.45;;;17.90;99.50;;;;;;4943136;29;20047;-82
2022/10/17 01:14:52;;;;;;;31.20;28.70;;;17.90;99.30;;;;;;4953993;29;20034;-82
2022/10/17 01:17:39;;;;;;;27.85;25.90;;;18.00;99.30;;;;;;4966657;28;20028;-82
2022/10/17 01:20:07;;;;;;;29.13;26.27;;;17.90;99.30;;;;;;4968032;28;20044;-82
2022/10/17 01:22:54;;;;;;;28.80;26.52;;;18.00;99.20;;;;;;4967611;28;20507;-83
2022/10/17 01:25:26;;;;;;;29.55;27.55;;;18.00;99.10;;;;;;4951541;28;20041;-82
2022/10/17 01:28:14;;;;;;;32.47;29.70;;;18.00;99.20;;;;;;4975213;28;20050;-82
2022/10/17 01:31:07;;;;;;;29.73;27.35;;;18.00;99.30;;;;;;4974377;28;20399;-82
2022/10/17 01:33:55;;;;;;;29.13;26.50;;;18.10;99.40;;;;;;4974719;28;20034;-82
2022/10/17 01:36:45;;;;;;;28.80;26.65;;;18.00;99.30;;;;;;4966325;28;20037;-82
2022/10/17 01:39:17;;;;;;;29.08;26.90;;;18.00;99.50;;;;;;4958522;28;20050;-83
2022/10/17 01:41:48;;;;;;;29.55;27.35;;;18.00;99.50;;;;;;4975158;28;20038;-82
2022/10/17 01:44:56;;;;;;;27.65;25.55;;;18.00;99.50;;;;;;4974897;28;20023;-82
2022/10/17 01:47:28;;;;;;;27.23;25.13;;;18.00;99.40;;;;;;4973928;28;20035;-82
2022/10/17 01:49:55;;;;;;;27.58;25.33;;;18.10;99.50;;;;;;4970985;28;20048;-82
2022/10/17 01:52:23;;;;;;;28.95;26.90;;;18.10;99.30;;;;;;4978228;28;20053;-82
2022/10/17 01:54:54;;;;;;;28.15;26.08;;;18.20;99.20;;;;;;4948422;28;20043;-83
2022/10/17 01:57:46;;;;;;;;;;;18.30;99.20;;;;;;4970959;28;20031;-82
2022/10/17 02:00:14;;;;;;;28.77;26.42;;;18.30;99.20;;;;;;4970618;28;19910;-83
2022/10/17 02:02:40;;;;;;;29.55;27.33;;;18.30;99.10;;;;;;4990878;28;20042;-82
2022/10/17 02:05:07;;;;;;;30.63;27.80;;;18.30;99.20;;;;;;4987139;28;20042;-83
2022/10/17 02:07:33;;;;;;;35.45;32.80;;;18.30;99.20;;;;;;4987022;28;20387;-83
2022/10/17 02:09:59;;;;;;;37.10;34.40;;;18.20;99.60;;;;;;4972902;28;20054;-84
2022/10/17 02:12:46;;;;;;;40.70;37.53;;;18.20;99.70;;;;;;4987606;28;20026;-84
2022/10/17 02:15:21;;;;;;;43.83;40.58;;;18.00;99.90;;;;;;4990287;28;20050;-84
2022/10/17 02:17:57;;;;;;;46.08;43.05;;;18.00;99.90;;;;;;4992514;28;20502;-84
2022/10/17 02:20:24;;;;;;;35.65;32.92;;;17.90;99.90;;;;;;4972024;28;20035;-84
2022/10/17 02:22:56;;;;;;;37.03;34.42;;;17.70;99.90;;;;;;4972937;28;20482;-84
2022/10/17 02:25:36;;;;;;;34.95;32.13;;;17.80;99.90;;;;;;5003602;28;20061;-84
2022/10/17 02:28:23;;;;;;;28.67;26.37;;;17.80;99.90;;;;;;4988815;28;20398;-84
2022/10/17 02:31:06;;;;;;;29.35;26.92;;;17.90;99.90;;;;;;4990685;28;20042;-84
2022/10/17 02:33:55;;;;;;;28.27;26.15;;;18.10;99.90;;;;;;4971741;28;20041;-84
2022/10/17 02:36:23;;;;;;;30.10;27.77;;;18.10;99.90;;;;;;4982107;28;20034;-83
2022/10/17 02:38:49;;;;;;;29.27;26.77;;;17.90;99.90;;;;;;4992454;28;20037;-84
2022/10/17 02:41:16;;;;;;;26.92;24.48;;;17.80;99.90;;;;;;4971574;28;20047;-83
2022/10/17 02:43:44;;;;;;;27.58;25.17;;;17.60;99.90;;;;;;4963146;28;20035;-83
2022/10/17 02:46:19;;;;;;;28.55;25.73;;;17.20;99.90;;;;;;4966287;28;20042;-84
2022/10/17 02:49:04;;;;;;;28.08;25.40;;;17.20;99.90;;;;;;4957958;28;20089;-83
2022/10/17 02:51:39;;;;;;;26.45;23.90;;;17.20;99.90;;;;;;4974921;28;20082;-83
2022/10/17 02:54:21;;;;;;;26.83;24.13;;;17.00;99.90;;;;;;4968605;28;20046;-83
2022/10/17 02:57:04;;;;;;;26.67;22.52;;;16.90;99.90;;;;;;4961722;28;20035;-83
2022/10/17 02:59:30;;;;;;;26.90;24.67;;;16.80;99.90;;;;;;4953934;28;20041;-84
2022/10/17 03:01:56;;;;;;;30.27;27.85;;;16.80;99.90;;;;;;4971963;28;20046;-83
2022/10/17 03:04:22;;;;;;;30.20;27.63;;;16.90;99.90;;;;;;4989187;28;20042;-83
2022/10/17 03:06:48;;;;;;;29.73;27.00;;;17.00;99.90;;;;;;4988719;28;20031;-83
2022/10/17 03:09:15;;;;;;;27.58;25.20;;;17.00;99.90;;;;;;4940902;28;20034;-83
2022/10/17 03:11:41;;;;;;;27.90;25.25;;;16.90;99.90;;;;;;4957023;28;20035;-83
2022/10/17 03:14:07;;;;;;;27.08;24.88;;;16.90;99.90;;;;;;4972735;28;20034;-83
2022/10/17 03:16:33;;;;;;;25.60;23.13;;;17.10;99.90;;;;;;4955571;28;20392;-83
2022/10/17 03:18:59;;;;;;;30.00;26.90;;;17.30;99.90;;;;;;4956993;28;20423;-83
2022/10/17 03:21:25;;;;;;;28.95;26.45;;;17.40;99.90;;;;;;4955845;28;20034;-83
2022/10/17 03:23:51;;;;;;;29.42;26.58;;;17.50;99.90;;;;;;4972093;28;20368;-83
2022/10/17 03:26:17;;;;;;;28.60;25.70;;;17.60;99.90;;;;;;4972748;28;20038;-83
2022/10/17 03:28:43;;;;;;;29.55;27.13;;;17.70;99.90;;;;;;4952925;28;20066;-83
2022/10/17 03:31:12;;;;;;;32.50;29.38;;;17.80;99.90;;;;;;4955315;28;20031;-83
2022/10/17 03:33:38;;;;;;;31.30;28.63;;;17.90;99.90;;;;;;4956678;28;20027;-83
2022/10/17 03:36:06;;;;;;;31.27;28.88;;;17.90;99.90;;;;;;4956415;28;20500;-83
2022/10/17 03:38:33;;;;;;;30.08;27.67;;;17.90;99.90;;;;;;4956010;28;20392;-83
2022/10/17 03:40:59;;;;;;;28.85;26.10;;;17.90;99.90;;;;;;4955978;28;20050;-83
2022/10/17 03:43:25;;;;;;;27.65;25.02;;;17.60;99.90;;;;;;4972610;28;20430;-83
2022/10/17 03:45:51;;;;;;;28.92;26.45;;;17.40;99.90;;;;;;4955654;28;20019;-84
2022/10/17 03:48:17;;;;;;;27.98;25.65;;;17.50;99.90;;;;;;4971597;28;20031;-83
2022/10/17 03:50:43;;;;;;;28.95;26.58;;;17.60;99.90;;;;;;4972459;28;20037;-83
2022/10/17 03:53:10;;;;;;;31.40;29.05;;;17.80;99.90;;;;;;4956239;28;20069;-83
2022/10/17 03:55:36;;;;;;;28.85;26.17;;;17.90;99.90;;;;;;4973493;28;20483;-83
2022/10/17 03:58:03;;;;;;;28.98;26.58;;;18.00;99.90;;;;;;4972593;28;20030;-83
2022/10/17 04:00:29;;;;;;;29.48;26.52;;;18.00;99.90;;;;;;4971551;28;20484;-83
2022/10/17 04:02:56;;;;;;;28.02;25.73;;;18.00;99.90;;;;;;4972687;28;20046;-83
2022/10/17 04:05:23;;;;;;;28.20;25.90;;;18.00;99.90;;;;;;4971462;28;20519;-83
2022/10/17 04:07:49;;;;;;;29.42;26.58;;;18.10;99.90;;;;;;4956477;28;20023;-85
2022/10/17 04:10:15;;;;;;;29.15;25.42;;;18.10;99.90;;;;;;4955882;28;20031;-85
2022/10/17 04:12:41;;;;;;;30.33;27.38;;;18.10;99.90;;;;;;4971727;28;20035;-85
2022/10/17 04:15:08;;;;;;;31.08;27.88;;;18.10;99.90;;;;;;4955024;28;20523;-86
2022/10/17 04:17:34;;;;;;;30.85;28.08;;;18.10;99.90;;;;;;4955860;28;20042;-85
2022/10/17 04:20:00;;;;;;;26.95;24.52;;;18.10;99.90;;;;;;4954516;28;20030;-85
2022/10/17 04:22:26;;;;;;;28.13;25.52;;;18.10;99.90;;;;;;4972390;28;20035;-86
2022/10/17 04:24:52;;;;;;;26.58;24.40;;;18.20;99.90;;;;;;4949134;28;20038;-85
2022/10/17 04:27:18;;;;;;;27.73;25.25;;;18.20;99.90;;;;;;4947733;28;20035;-88
2022/10/17 04:29:44;;;;;;;29.48;27.10;;;18.20;99.90;;;;;;4986727;28;20035;-89
2022/10/17 04:32:10;;;;;;;31.02;28.20;;;18.20;99.90;;;;;;4967915;28;20051;-89
2022/10/17 04:34:37;;;;;;;30.35;27.73;;;18.20;99.90;;;;;;4965413;28;20046;-87
2022/10/17 04:37:03;;;;;;;28.63;26.30;;;18.20;99.90;;;;;;4955905;28;20030;-87
2022/10/17 04:39:29;;;;;;;30.35;27.55;;;18.20;99.90;;;;;;4970552;28;20045;-88
2022/10/17 04:41:55;;;;;;;28.75;26.15;;;18.10;99.90;;;;;;4972701;28;20585;-87
2022/10/17 04:44:22;;;;;;;31.73;29.02;;;18.00;99.90;;;;;;4951424;28;20476;-87
2022/10/17 04:46:48;;;;;;;33.35;30.48;;;18.10;99.90;;;;;;4952454;28;20042;-88
2022/10/17 04:49:14;;;;;;;30.63;27.77;;;18.10;99.90;;;;;;4964372;28;20046;-88
2022/10/17 04:51:40;;;;;;;31.85;29.13;;;18.10;99.90;;;;;;4971157;28;20119;-88
2022/10/17 04:54:06;;;;;;;30.88;28.25;;;18.10;99.90;;;;;;4971903;28;20038;-87
2022/10/17 04:56:32;;;;;;;31.95;29.15;;;18.10;99.90;;;;;;4972210;28;20483;-87
2022/10/17 04:58:58;;;;;;;31.27;28.67;;;18.10;99.90;;;;;;4970859;28;20045;-86
2022/10/17 05:01:25;;;;;;;32.17;29.20;;;18.10;99.90;;;;;;4974170;28;20038;-87
2022/10/17 05:03:51;;;;;;;31.70;28.60;;;18.10;99.90;;;;;;4957986;28;20416;-87
2022/10/17 05:06:22;;;;;;;31.00;28.38;;;18.10;99.90;;;;;;4975515;28;20034;-87
2022/10/17 05:08:48;;;;;;;34.38;31.52;;;18.10;99.90;;;;;;4958583;28;20054;-87
2022/10/17 05:11:22;;;;;;;31.90;29.52;;;18.00;99.90;;;;;;4955419;28;20039;-88
2022/10/17 05:13:56;;;;;;;34.25;31.00;;;18.10;99.90;;;;;;4944312;28;20046;-89
2022/10/17 05:16:22;;;;;;;31.60;29.10;;;18.10;99.90;;;;;;4943890;28;20031;-90
2022/10/17 05:18:49;;;;;;;31.65;29.10;;;18.10;99.90;;;;;;4955142;28;20480;-88
2022/10/17 05:21:16;;;;;;;31.63;28.85;;;18.10;99.90;;;;;;4943625;28;20042;-88
2022/10/17 05:23:42;;;;;;;33.03;30.27;;;18.10;99.90;;;;;;4957411;28;20381;-86
2022/10/17 05:26:08;;;;;;;32.40;29.10;;;18.10;99.90;;;;;;4961528;28;20035;-87
2022/10/17 05:28:34;;;;;;;31.83;29.40;;;18.10;99.90;;;;;;4955523;29;20098;-87
2022/10/17 05:31:07;;;;;;;30.83;28.20;;;18.10;99.90;;;;;;4939343;28;20035;-88
2022/10/17 05:33:33;;;;;;;33.85;30.60;;;18.10;99.90;;;;;;4966183;28;20484;-87
2022/10/17 05:35:59;;;;;;;32.33;29.27;;;18.10;99.90;;;;;;4958746;28;20042;-88
2022/10/17 05:38:26;;;;;;;31.77;28.83;;;18.00;99.90;;;;;;4978641;28;20042;-88
2022/10/17 05:40:59;;;;;;;28.40;25.85;;;18.00;99.90;;;;;;4954849;28;20039;-87
2022/10/17 05:43:25;;;;;;;28.65;25.92;;;18.00;99.90;;;;;;4939043;29;20074;-88
2022/10/17 05:45:51;;;;;;;29.77;27.55;;;18.10;99.90;;;;;;4954154;28;20396;-89
2022/10/17 05:48:17;;;;;;;28.52;25.58;;;18.00;99.90;;;;;;4957649;28;20042;-87
2022/10/17 05:50:44;;;;;;;28.38;25.75;;;18.00;99.90;;;;;;4954623;29;20616;-89
2022/10/17 05:53:10;;;;;;;30.33;27.25;;;18.10;99.90;;;;;;4971748;28;20049;-89
2022/10/17 05:55:36;;;;;;;30.85;27.42;;;18.10;99.90;;;;;;4955734;29;20070;-88
2022/10/17 05:58:02;;;;;;;29.48;27.08;;;18.10;99.90;;;;;;4954824;29;20043;-89
2022/10/17 06:00:28;;;;;;;31.10;27.10;;;18.10;99.90;;;;;;4979274;28;20035;-89
2022/10/17 06:02:54;;;;;;;28.75;26.33;;;18.10;99.90;;;;;;4958415;28;20050;-87
2022/10/17 06:05:20;;;;;;;29.05;26.55;;;18.10;99.90;;;;;;4973596;28;20039;-87
2022/10/17 06:07:48;;;;;;;28.67;26.38;;;18.10;99.90;;;;;;4974361;28;20377;-87
2022/10/17 06:10:16;;;;;;;30.05;27.27;;;18.20;99.90;;;;;;4966431;28;20031;-88
2022/10/17 06:12:42;;;;;;;30.30;27.35;;;18.10;99.90;;;;;;4922280;29;20046;-86
2022/10/17 06:15:09;;;;;;;32.60;29.55;;;18.20;99.90;;;;;;4954791;28;20437;-89
2022/10/17 06:17:35;;;;;;;30.67;28.20;;;18.10;99.90;;;;;;4974918;28;20026;-87
2022/10/17 06:20:02;;;;;;;32.40;29.80;;;18.10;99.90;;;;;;4975955;28;20376;-91
2022/10/17 06:22:28;;;;;;;30.75;27.70;;;18.10;99.90;;;;;;4959958;28;20055;-85
2022/10/17 06:24:54;;;;;;;31.38;28.52;;;18.10;99.90;;;;;;4973467;28;20468;-85
2022/10/17 06:27:20;;;;;;;31.33;28.38;;;18.10;99.90;;;;;;4973923;28;20038;-84
2022/10/17 06:29:46;;;;;;;35.53;32.28;;;18.10;99.90;;;;;;4955540;28;20054;-84
2022/10/17 06:32:13;;;;;;;30.38;27.75;;;18.10;99.90;;;;;;4955808;28;20030;-88
2022/10/17 06:34:39;;;;;;;31.98;29.30;;;18.00;99.90;;;;;;4958216;28;20038;-91
2022/10/17 06:37:05;;;;;;;31.15;28.17;;;17.90;99.90;;;;;;4991882;28;20027;-91
2022/10/17 06:39:34;;;;;;;32.70;29.48;;;18.00;99.90;;;;;;4972156;28;20039;-91
2022/10/17 06:42:00;;;;;;;30.48;28.15;;;18.00;99.90;;;;;;4939185;28;20039;-88
2022/10/17 06:44:30;;;;;;;32.90;30.13;;;18.10;99.90;;;;;;4958263;28;20399;-89
2022/10/17 06:46:57;;;;;;;31.58;29.02;;;18.10;99.90;;;;;;4943325;28;20030;-86
2022/10/17 06:49:24;;;;;;;31.15;28.67;;;18.10;99.90;;;;;;4940822;28;20043;-90
2022/10/17 06:51:50;;;;;;;32.50;29.42;;;18.10;99.90;;;;;;4952394;28;20050;-91
2022/10/17 06:54:16;;;;;;;32.88;30.02;;;18.10;99.90;;;;;;4970908;28;20038;-87
2022/10/17 06:56:42;;;;;;;35.55;32.50;;;18.10;99.90;;;;;;4974753;28;20035;-88
2022/10/17 06:59:09;;;;;;;31.33;29.00;;;18.10;99.90;;;;;;4941792;28;20077;-91
2022/10/17 07:01:35;;;;;;;31.80;29.27;;;18.10;99.90;;;;;;4956122;28;20027;-90
2022/10/17 07:04:01;;;;;;;31.95;29.30;;;18.20;99.90;;;;;;4945812;28;20069;-89
2022/10/17 07:06:27;;;;;;;30.25;27.67;;;18.20;99.90;;;;;;4942093;28;20035;-89
2022/10/17 07:08:54;;;;;;;32.95;30.42;;;18.20;99.90;;;;;;4973100;28;20034;-90
2022/10/17 07:11:21;;;;;;;36.05;33.10;;;18.20;99.90;;;;;;4975835;28;20042;-90
2022/10/17 07:13:47;;;;;;;32.38;29.95;;;18.10;99.90;;;;;;4957668;28;20042;-87
2022/10/17 07:16:13;;;;;;;32.05;29.27;;;18.20;99.90;;;;;;4956055;28;20034;-88
2022/10/17 07:18:40;;;;;;;29.30;26.92;;;18.20;99.90;;;;;;4957720;28;20037;-92
2022/10/17 07:21:07;;;;;;;33.47;31.08;;;18.20;99.90;;;;;;4937922;29;20039;-88
2022/10/17 07:23:35;;;;;;;33.83;31.13;;;18.10;99.90;;;;;;4956543;28;20039;-92
2022/10/17 07:26:07;;;;;;;30.77;28.50;;;18.10;99.90;;;;;;4956061;28;20026;-92
2022/10/17 07:28:34;;;;;;;31.92;29.35;;;18.10;99.90;;;;;;4949488;28;20043;-89
2022/10/17 07:31:05;;;;;;;31.73;29.02;;;18.10;99.90;;;;;;4956420;28;20031;-86
2022/10/17 07:33:31;;;;;;;31.40;28.70;;;18.10;99.90;;;;;;4972670;28;20035;-86
2022/10/17 07:35:58;;;;;;;30.35;28.17;;;18.10;99.90;;;;;;4937500;29;20035;-86
2022/10/17 07:38:25;;;;;;;31.23;28.45;;;18.10;99.90;;;;;;4960009;28;20520;-86
2022/10/17 07:40:59;;;;;;;30.48;27.40;;;18.10;99.90;;;;;;4988551;28;20055;-86
2022/10/17 07:43:26;;;;;;;29.25;27.13;;;18.10;99.90;;;;;;4973606;28;20039;-86
2022/10/17 07:45:52;;;;;;;33.58;30.77;;;18.10;99.90;;;;;;4971629;28;20026;-86
2022/10/17 07:48:18;;;;;;;32.63;29.98;;;18.00;99.90;;;;;;4952344;29;20043;-86
2022/10/17 07:50:44;;;;;;;30.08;27.52;;;18.00;99.90;;;;;;4969291;28;20472;-86
2022/10/17 07:53:11;;;;;;;30.65;28.10;;;17.90;99.90;;;;;;4936647;29;20065;-86
2022/10/17 07:55:38;;;;;;;31.15;28.67;;;17.90;99.90;;;;;;4956420;28;20039;-85
2022/10/17 07:58:04;;;;;;;28.75;26.42;;;17.90;99.90;;;;;;4971749;28;20035;-86
2022/10/17 08:00:30;;;;;;;29.33;26.92;;;17.90;99.90;;;;;;4972036;28;20340;-85
2022/10/17 08:02:56;;;;;;;28.55;26.35;;;18.00;99.90;;;;;;4971391;28;20046;-85
2022/10/17 08:05:22;;;;;;;29.52;26.92;;;18.10;99.90;;;;;;4952715;28;20050;-86
2022/10/17 08:07:48;;;;;;;27.33;25.27;;;18.10;99.90;;;;;;4968920;28;20039;-85
2022/10/17 08:10:14;;;;;;;30.85;27.77;;;18.20;99.90;;;;;;4969161;28;20039;-85
2022/10/17 08:12:41;;;;;;;28.30;25.90;;;18.30;99.90;;;;;;4953053;28;20042;-86
2022/10/17 08:15:07;;;;;;;29.10;26.70;;;18.30;99.90;;;;;;4971670;28;20039;-86
2022/10/17 08:17:34;;;;;;;31.85;29.48;;;18.30;99.90;;;;;;4971179;28;20034;-85
2022/10/17 08:20:01;;;;;;;28.80;26.67;;;18.40;99.90;;;;;;4955626;28;20046;-85
2022/10/17 08:22:27;;;;;;;28.15;26.02;;;18.30;99.90;;;;;;4955552;28;20046;-85
2022/10/17 08:24:53;;;;;;;29.08;26.92;;;18.20;99.90;;;;;;4954435;28;20046;-86
2022/10/17 08:27:26;;;;;;;30.23;27.75;;;18.30;99.90;;;;;;4962371;28;20475;-85
2022/10/17 08:29:53;;;;;;;29.42;26.90;;;18.30;99.90;;;;;;4970800;28;20035;-85
2022/10/17 08:32:20;;;;;;;30.63;28.08;;;18.30;99.90;;;;;;4960778;28;20413;-85
2022/10/17 08:34:46;;;;;;;33.45;30.80;;;18.40;99.90;;;;;;4938551;28;20031;-85
2022/10/17 08:37:13;;;;;;;33.83;31.58;;;18.40;99.90;;;;;;4975426;28;20039;-85
2022/10/17 08:39:40;;;;;;;33.70;31.40;;;18.40;99.90;;;;;;4975908;28;20058;-86
2022/10/17 08:42:25;;;;;;;32.67;30.08;;;18.40;99.90;;;;;;4946253;28;20046;-85
2022/10/17 08:45:09;;;;;;;32.38;29.88;;;18.50;99.90;;;;;;4974556;28;20046;-85
2022/10/17 08:47:38;;;;;;;34.63;32.10;;;18.40;99.90;;;;;;4973104;28;20042;-84
2022/10/17 08:50:06;;;;;;;32.60;30.20;;;18.40;99.90;;;;;;4973330;28;20063;-86
2022/10/17 08:52:46;;;;;;;33.55;30.80;;;18.50;99.90;;;;;;4987970;28;20035;-87
2022/10/17 08:55:35;;;;;;;36.03;33.28;;;18.60;99.90;;;;;;4973715;28;20031;-86
2022/10/17 08:58:01;;;;;;;30.23;27.90;;;18.50;99.90;;;;;;4974293;28;20408;-85
2022/10/17 09:00:28;;;;;;;31.13;28.55;;;18.50;99.90;;;;;;4974236;28;20023;-86
2022/10/17 09:03:16;;;;;;;37.20;34.35;;;18.60;99.90;;;;;;4943389;28;20039;-89
2022/10/17 09:06:24;;;;;;;31.08;28.70;;;18.60;99.90;;;;;;4976441;28;20031;-87
2022/10/17 09:09:08;;;;;;;34.08;31.23;;;18.60;99.90;;;;;;4920672;29;20429;-88
2022/10/17 09:12:04;;;;;;;32.10;29.45;;;18.50;99.90;;;;;;4936373;29;20036;-87
2022/10/17 09:14:49;;;;;;;35.15;32.20;;;18.50;99.90;;;;;;4929236;29;20060;-89
2022/10/17 09:17:30;;;;;;;33.22;30.27;;;18.40;99.90;;;;;;4924026;29;20047;-86
2022/10/17 09:20:00;;;;;;;32.78;29.92;;;18.40;99.90;;;;;;4952294;28;20400;-90
2022/10/17 09:22:29;;;;;;;28.17;26.03;;;18.40;99.90;;;;;;4929023;28;20480;-86
2022/10/17 09:25:15;;;;;;;33.05;30.27;;;18.40;99.90;;;;;;4954648;28;20063;-87
2022/10/17 09:27:45;;;;;;;32.15;29.92;;;18.50;99.90;;;;;;4938594;29;20074;-89
2022/10/17 09:30:34;;;;;;;33.17;30.23;;;18.60;99.90;;;;;;4939309;28;20086;-86
2022/10/17 09:33:01;;;;;;;35.10;32.28;;;18.70;99.90;;;;;;4937711;29;20039;-84
2022/10/17 09:35:27;;;;;;;40.63;37.50;;;18.80;99.90;;;;;;4953846;29;20042;-88
2022/10/17 09:37:53;;;;;;;34.95;32.17;;;18.90;99.90;;;;;;4955811;29;20039;-89
2022/10/17 09:40:25;;;;;;;37.13;34.22;;;19.00;99.90;;;;;;4956658;29;20051;-85
2022/10/17 09:42:51;;;;;;;44.03;40.75;;;19.00;99.90;;;;;;4965300;28;20043;-89
2022/10/17 09:45:23;;;;;;;48.78;45.67;;;19.10;99.90;;;;;;4963938;28;20047;-86
2022/10/17 09:47:56;;;;;;;47.15;44.05;;;19.20;99.90;;;;;;4954676;29;20031;-89
2022/10/17 09:50:31;;;;;;;46.22;43.22;;;19.30;99.90;;;;;;4972050;28;20042;-85
2022/10/17 09:53:21;;;;;;;44.70;41.15;;;19.40;99.90;;;;;;4965288;28;20030;-87
2022/10/17 09:55:56;;;;;;;38.28;35.47;;;19.50;99.90;;;;;;4961705;28;20043;-88
2022/10/17 09:58:22;;;;;;;36.55;33.67;;;19.50;99.90;;;;;;4971640;28;20400;-82
2022/10/17 10:00:48;;;;;;;32.88;30.65;;;19.50;99.90;;;;;;4976980;28;20042;-90
2022/10/17 10:03:22;;;;;;;34.05;31.48;;;19.60;99.90;;;;;;4973593;28;20035;-88
2022/10/17 10:06:19;;;;;;;35.90;33.53;;;19.60;99.90;;;;;;4942369;28;20039;-88
2022/10/17 10:08:52;;;;;;;31.15;28.67;;;19.70;99.90;;;;;;4953056;28;20127;-88
2022/10/17 10:11:22;;;;;;;33.78;31.55;;;19.70;99.90;;;;;;4958194;28;20039;-88
2022/10/17 10:13:48;;;;;;;32.05;29.75;;;19.60;99.90;;;;;;4942216;28;20039;-90
2022/10/17 10:16:19;;;;;;;35.17;32.58;;;19.60;99.90;;;;;;4956236;28;20034;-90
2022/10/17 10:18:46;;;;;;;;;;;19.60;99.90;;;;;;4973870;28;20053;-88
2022/10/17 10:21:14;;;;;;;33.53;31.45;;;19.70;99.90;;;;;;4990361;28;20282;-88
2022/10/17 10:23:44;;;;;;;39.50;37.10;;;19.80;99.90;;;;;;4957704;28;20050;-86
2022/10/17 10:26:17;;;;;;;34.35;31.95;;;19.90;99.90;;;;;;4971448;28;20035;-90
2022/10/17 10:29:03;;;;;;;34.80;32.58;;;19.90;99.90;;;;;;4957867;28;20561;-88
2022/10/17 10:31:32;;;;;;;40.95;38.08;;;20.00;99.90;;;;;;4939077;28;20037;-90
2022/10/17 10:33:59;;;;;;;39.47;37.03;;;20.00;99.90;;;;;;4941317;28;20042;-88
2022/10/17 10:36:40;;;;;;;39.60;36.80;;;20.10;99.90;;;;;;4971072;28;20046;-87
2022/10/17 10:39:07;;;;;;;35.97;33.42;;;20.10;99.90;;;;;;4955668;28;20150;-84
2022/10/17 10:41:45;;;;;;;27.13;25.52;;;20.30;99.90;;;;;;4953290;28;20395;-86
2022/10/17 10:44:13;;;;;;;29.58;27.58;;;20.30;99.00;;;;;;4926544;29;20423;-84
2022/10/17 10:46:39;;;;;;;29.88;27.77;;;20.20;99.70;;;;;;4978270;28;20034;-85
2022/10/17 10:49:07;;;;;;;30.35;28.17;;;20.30;99.90;;;;;;4928147;29;20060;-85
2022/10/17 10:51:37;;;;;;;26.65;24.95;;;20.40;99.70;;;;;;4983821;28;20038;-85
2022/10/17 10:54:21;;;;;;;26.25;24.55;;;20.50;99.40;;;;;;4953156;28;20372;-85
2022/10/17 10:56:55;;;;;;;29.10;26.90;;;20.70;99.00;;;;;;4950142;28;20035;-85
2022/10/17 10:59:31;;;;;;;29.92;27.88;;;20.70;98.70;;;;;;4972558;28;20042;-85
2022/10/17 11:02:06;;;;;;;34.20;32.05;;;20.80;98.70;;;;;;4986606;28;20476;-85
2022/10/17 11:04:47;;;;;;;33.83;31.42;;;20.70;98.90;;;;;;4983561;28;20431;-85
2022/10/17 11:07:22;;;;;;;30.73;28.77;;;20.70;98.50;;;;;;4956238;28;20038;-85
2022/10/17 11:10:02;;;;;;;30.35;28.42;;;20.90;98.60;;;;;;4956646;28;20289;-85
2022/10/17 11:12:54;;;;;;;32.60;30.30;;;20.90;98.00;;;;;;4938552;29;20050;-85
2022/10/17 11:15:34;;;;;;;33.20;30.98;;;20.90;97.90;;;;;;4953771;28;20042;-85
2022/10/17 11:18:14;;;;;;;27.60;25.83;;;20.90;97.00;;;;;;4970507;28;20039;-85
2022/10/17 11:20:59;;;;;;;25.45;23.90;;;20.60;96.60;;;;;;4958592;28;20396;-84
2022/10/17 11:23:29;;;;;;;28.48;26.52;;;20.40;96.80;;;;;;4987838;28;20386;-85
2022/10/17 11:25:57;;;;;;;24.65;23.05;;;20.50;97.70;;;;;;4971664;28;20035;-85
2022/10/17 11:28:23;;;;;;;24.40;22.88;;;20.50;97.00;;;;;;4955735;28;20042;-84
2022/10/17 11:31:01;;;;;;;26.13;24.20;;;20.50;97.20;;;;;;4954561;28;20388;-85
2022/10/17 11:33:48;;;;;;;24.00;22.40;;;20.60;97.10;;;;;;4951070;28;20035;-84
2022/10/17 11:36:16;;;;;;;24.27;22.67;;;20.60;97.10;;;;;;4954212;28;20043;-85
2022/10/17 11:39:03;;;;;;;22.42;21.02;;;20.70;96.80;;;;;;4987134;28;20042;-85
2022/10/17 11:41:31;;;;;;;22.80;21.00;;;20.70;96.80;;;;;;4948954;28;20058;-85
2022/10/17 11:43:58;;;;;;;24.27;22.35;;;20.90;96.60;;;;;;4982936;28;20046;-85
2022/10/17 11:46:26;;;;;;;26.58;24.77;;;20.90;96.70;;;;;;4970527;28;20035;-85
2022/10/17 11:49:00;;;;;;;24.20;22.50;;;20.90;96.90;;;;;;4955358;28;20103;-85
2022/10/17 11:51:26;;;;;;;26.10;24.20;;;21.00;96.80;;;;;;4968673;28;20582;-85
2022/10/17 11:54:03;;;;;;;24.00;22.15;;;21.00;97.00;;;;;;4949274;28;20022;-85
2022/10/17 11:56:32;;;;;;;27.52;25.63;;;21.00;96.90;;;;;;4971402;28;20027;-85
2022/10/17 11:59:20;;;;;;;29.50;27.20;;;21.00;97.20;;;;;;4970071;28;20049;-85
2022/10/17 12:01:51;;;;;;;32.10;29.80;;;21.00;97.10;;;;;;4955771;28;20048;-85
2022/10/17 12:04:44;;;;;;;31.40;28.98;;;21.00;97.30;;;;;;4940173;28;20053;-85
2022/10/17 12:07:18;;;;;;;30.73;28.35;;;21.00;97.50;;;;;;4971151;28;20476;-84
2022/10/17 12:09:55;;;;;;;35.13;32.65;;;21.00;97.70;;;;;;4971443;28;20460;-85
2022/10/17 12:12:27;;;;;;;31.25;28.83;;;20.90;97.80;;;;;;4971329;28;20037;-85
2022/10/17 12:14:53;;;;;;;31.30;28.90;;;21.00;98.10;;;;;;4939491;28;20054;-85
2022/10/17 12:17:39;;;;;;;30.80;28.50;;;20.90;98.00;;;;;;4954075;28;20043;-85
2022/10/17 12:20:23;;;;;;;27.92;25.63;;;20.90;98.10;;;;;;4956027;28;20031;-84
2022/10/17 12:22:53;;;;;;;33.17;30.67;;;21.00;98.00;;;;;;4965733;28;20367;-84
2022/10/17 12:25:31;;;;;;;30.73;28.00;;;21.00;98.50;;;;;;4955052;28;20055;-85
2022/10/17 12:28:05;;;;;;;29.10;26.20;;;21.20;98.00;;;;;;4955494;28;20388;-85
2022/10/17 12:30:31;;;;;;;29.05;26.60;;;21.20;97.90;;;;;;4970183;28;20197;-85
2022/10/17 12:33:10;;;;;;;29.60;26.92;;;21.10;97.90;;;;;;4971580;28;20050;-85
2022/10/17 12:35:37;;;;;;;30.95;27.80;;;21.10;98.00;;;;;;4955863;28;20042;-85
2022/10/17 12:38:14;;;;;;;32.72;29.75;;;21.10;98.00;;;;;;4956166;28;20034;-85
2022/10/17 12:40:48;;;;;;;30.50;27.73;;;21.10;98.00;;;;;;4942722;28;20416;-84
2022/10/17 12:43:14;;;;;;;28.05;25.73;;;21.20;97.60;;;;;;4985755;28;20058;-84
2022/10/17 12:46:10;;;;;;;28.25;25.67;;;21.10;97.60;;;;;;4971565;28;20043;-84